Overview Statistics Trail Chart Weather Telemetry Raw packets
 

This is the latest recevied weather packets stored in our database for station/object ED3YAB-7. If no packets are shown the sender has not sent any weather packets the latest 10 day(s).

<< 6 7 8 9 10 11 12 >>
Time Temp. Humidity Pressure Rain* Wind** Luminosity Snow
1778008841 12.78° C 62% 1015.6 hPa - - - -
1778007653 13.33° C 64% 1015.5 hPa - - - -
1778007641 13.33° C 64% 1015.5 hPa - - - -
1778006444 15.56° C 60% 1015.5 hPa - - - -
1778005241 13.33° C 67% 1015.7 hPa - - - -
1778004048 13.33° C 67% 1015.7 hPa - - - -
1778004041 13.33° C 67% 1015.7 hPa - - - -
1778003132 12.78° C 68% 1015.6 hPa - - - -
1778003125 12.78° C 68% 1015.6 hPa - - - -
1778001936 13.33° C 66% 1015.9 hPa - - - -
1778001925 13.33° C 66% 1015.9 hPa - - - -
1777999590 13.33° C 63% 1015.8 hPa - - - -
1777999562 13.33° C 63% 1015.8 hPa - - - -
1777998918 13.89° C 61% 1016 hPa - - - -
1777997729 13.89° C 59% 1015.9 hPa - - - -
1777997718 13.89° C 59% 1015.9 hPa - - - -
1777996525 13.89° C 58% 1016 hPa - - - -
1777996518 13.89° C 58% 1016 hPa - - - -
1777995317 15° C 51% 1015.6 hPa - - - -
1777994127 17.22° C 41% 1015 hPa - - - -
1777994119 17.22° C 41% 1015 hPa - - - -
1777992926 18.89° C 42% 1014.9 hPa - - - -
1777992919 18.89° C 42% 1014.9 hPa - - - -
1777991726 23.33° C 33% 1014.5 hPa - - - -
1777991719 23.33° C 33% 1014.5 hPa - - - -

* Rain since midnight (hover to see other rain measurements)
** Current wind speed in m/s (hover to see current wind gust speed)